Terminal Aerodrome Forecast
Issued by NWS

Current Version | Previous Version | Text Only | Print | Product List | Glossary Off
Versions: 1 2 3 4 5 6 7 8 9 10 11 12 13 14 15 16 17 18 19 20 21 22 23 24 25 26 27 28

631
FTUS41 KILN 202246 AAC
TAFLUK
TAF AMD
KLUK 202246Z 2023/2118 24012G22KT P6SM -SHRA BKN050 OVC100
      TEMPO 2100/2104 VRB10G25KT 2SM TSRA OVC025CB
     FM210400 23010KT 5SM -SHRA VCTS OVC050CB
     FM210600 26008KT P6SM VCSH BKN025
     FM210800 31008KT P6SM BKN025
     FM211500 32008KT P6SM SCT050 BKN100=

USA.gov is the U.S. government's official web portal to all federal, state and local government web resources and services.